Time;durP1;ratioP1;P1;durP2;ratioP2;P2;SDS_P1;SDS_P2;PMS_P1;PMS_P2;Temp;Humidity;BMP_temperature;BMP_pressure;BME280_temperature;BME280_humidity;BME280_pressure;Samples;Min_cycle;Max_cycle;Signal;HPM_P1;HPM_P2
2022/08/01 00:00:16;;;;;;;4.50;2.15;;;;;;;19.97;100.00;101670.81;5205383;28;20459;-73
2022/08/01 00:02:46;;;;;;;5.95;2.00;;;;;;;19.92;100.00;101683.16;5203719;28;20091;-72
2022/08/01 00:05:17;;;;;;;3.90;2.20;;;;;;;19.88;100.00;101686.50;5204543;28;20025;-73
2022/08/01 00:07:48;;;;;;;4.85;2.38;;;;;;;19.83;100.00;101676.28;5204662;28;20029;-72
2022/08/01 00:10:19;;;;;;;11.70;2.78;;;;;;;19.82;100.00;101676.47;5205023;28;20021;-73
2022/08/01 00:12:50;;;;;;;3.90;2.53;;;;;;;19.76;100.00;101680.00;5204873;28;20118;-73
2022/08/01 00:15:20;;;;;;;6.28;2.80;;;;;;;19.72;100.00;101685.03;5202948;28;20107;-73
2022/08/01 00:17:51;;;;;;;6.63;2.92;;;;;;;19.70;100.00;101681.69;5204860;28;20467;-73
2022/08/01 00:20:21;;;;;;;7.40;2.83;;;;;;;19.66;100.00;101677.69;5202815;28;20033;-73
2022/08/01 00:22:52;;;;;;;5.97;3.13;;;;;;;19.61;100.00;101682.91;5192991;28;20093;-73
2022/08/01 00:25:22;;;;;;;7.22;3.10;;;;;;;19.60;100.00;101679.34;5204349;28;20036;-72
2022/08/01 00:27:54;;;;;;;14.05;3.22;;;;;;;19.55;100.00;101683.72;5205411;28;20025;-72
2022/08/01 00:30:24;;;;;;;6.05;3.53;;;;;;;19.52;100.00;101687.66;5204514;28;20079;-73
2022/08/01 00:32:55;;;;;;;7.03;3.35;;;;;;;19.52;100.00;101681.38;5204316;28;20029;-73
2022/08/01 00:35:25;;;;;;;5.80;3.58;;;;;;;19.49;100.00;101679.09;5204280;28;20120;-73
2022/08/01 00:37:56;;;;;;;6.28;3.33;;;;;;;19.50;100.00;101680.75;5204511;28;20017;-73
2022/08/01 00:40:26;;;;;;;7.70;3.15;;;;;;;19.52;100.00;101684.94;5204570;28;20387;-73
2022/08/01 00:42:56;;;;;;;6.05;2.85;;;;;;;19.49;100.00;101681.81;5204023;28;20021;-73
2022/08/01 00:45:27;;;;;;;12.52;3.55;;;;;;;19.51;100.00;101687.88;5203307;28;20036;-73
2022/08/01 00:47:57;;;;;;;14.05;3.95;;;;;;;19.46;100.00;101679.50;5203387;28;20029;-73
2022/08/01 00:50:28;;;;;;;8.30;3.53;;;;;;;19.44;100.00;101684.31;5204349;28;20049;-73
2022/08/01 00:52:59;;;;;;;9.93;3.75;;;;;;;19.44;100.00;101674.25;5190067;28;20036;-73
2022/08/01 00:55:31;;;;;;;10.45;3.85;;;;;;;19.44;100.00;101681.59;5203503;28;20089;-72
2022/08/01 00:58:02;;;;;;;8.52;4.93;;;;;;;19.45;100.00;101680.53;5200623;28;20104;-73
2022/08/01 01:00:35;;;;;;;9.80;3.75;;;;;;;19.46;100.00;101683.03;5204054;28;20018;-73
2022/08/01 01:03:06;;;;;;;9.77;3.63;;;;;;;19.50;100.00;101678.88;5202134;28;20114;-74
2022/08/01 01:05:48;;;;;;;11.70;3.85;;;;;;;19.53;100.00;101680.34;5204056;28;20067;-77
2022/08/01 01:08:26;;;;;;;9.48;4.63;;;;;;;19.54;100.00;101676.59;5191772;28;20025;-75
2022/08/01 01:11:09;;;;;;;6.57;4.10;;;;;;;19.54;100.00;101677.44;5203956;28;20025;-72
2022/08/01 01:14:16;;;;;;;10.45;4.00;;;;;;;19.49;100.00;101679.09;5203860;28;20445;-72
2022/08/01 01:16:47;;;;;;;7.95;3.45;;;;;;;19.45;100.00;101677.81;5203833;28;20567;-73
2022/08/01 01:19:23;;;;;;;10.07;4.35;;;;;;;19.40;100.00;101676.53;5204070;28;20100;-72
2022/08/01 01:22:17;;;;;;;11.05;5.30;;;;;;;19.37;100.00;101681.53;5203207;28;20487;-72
2022/08/01 01:25:05;;;;;;;9.80;5.00;;;;;;;19.38;100.00;101689.53;5202949;28;20048;-72
2022/08/01 01:27:49;;;;;;;8.82;4.90;;;;;;;19.40;100.00;101687.44;5203839;28;20053;-73
2022/08/01 01:30:23;;;;;;;9.60;4.80;;;;;;;19.44;100.00;101670.69;5203609;28;20151;-73
2022/08/01 01:32:57;;;;;;;9.02;4.63;;;;;;;19.44;100.00;101670.69;5202583;28;20052;-72
2022/08/01 01:35:33;;;;;;;15.77;5.45;;;;;;;19.45;100.00;101675.09;5202709;28;20033;-72
2022/08/01 01:38:09;;;;;;;9.25;5.30;;;;;;;19.46;100.00;101671.31;5203458;28;20036;-72
2022/08/01 01:40:43;;;;;;;11.48;4.97;;;;;;;19.47;100.00;101679.28;5203594;28;20029;-72
2022/08/01 01:43:15;;;;;;;8.75;5.35;;;;;;;19.49;100.00;101674.47;5203474;28;20159;-73
2022/08/01 01:45:47;;;;;;;10.07;5.20;;;;;;;19.51;100.00;101674.28;5202606;28;20040;-72
2022/08/01 01:48:21;;;;;;;11.02;5.25;;;;;;;19.52;100.00;101671.34;5201314;28;20441;-72
2022/08/01 01:50:52;;;;;;;13.00;5.72;;;;;;;19.54;100.00;101673.88;5203884;28;20083;-72
2022/08/01 01:53:25;;;;;;;11.38;6.22;;;;;;;19.51;100.00;101672.38;5190847;28;20567;-73
2022/08/01 01:56:01;;;;;;;11.35;5.55;;;;;;;19.50;100.00;101675.31;5199625;28;20026;-73
2022/08/01 01:58:34;;;;;;;9.35;5.20;;;;;;;19.52;100.00;101684.09;5203272;28;20367;-72
2022/08/01 02:01:07;;;;;;;8.38;5.63;;;;;;;19.52;100.00;101678.66;5203447;28;20075;-72
2022/08/01 02:03:39;;;;;;;11.73;6.22;;;;;;;19.52;100.00;101674.06;5201436;28;20049;-72
2022/08/01 02:06:23;;;;;;;12.30;6.30;;;;;;;19.50;100.00;101667.16;5206929;28;20082;-73
2022/08/01 02:08:55;;;;;;;14.70;5.95;;;;;;;19.51;100.00;101675.09;5208055;28;20384;-72
2022/08/01 02:11:25;;;;;;;11.13;6.30;;;;;;;19.57;100.00;101668.00;5193967;28;20025;-74
2022/08/01 02:14:02;;;;;;;9.90;6.10;;;;;;;19.55;100.00;101661.94;5207402;28;20479;-74
2022/08/01 02:16:36;;;;;;;15.27;6.70;;;;;;;19.53;100.00;101664.00;5206070;28;20052;-72
2022/08/01 02:19:06;;;;;;;14.32;6.63;;;;;;;19.52;100.00;101671.34;5207079;28;20251;-73
2022/08/01 02:21:44;;;;;;;12.57;7.03;;;;;;;19.51;100.00;101672.38;5206717;28;20047;-72
2022/08/01 02:24:19;;;;;;;12.63;7.75;;;;;;;19.54;100.00;101665.72;5206659;28;20032;-73
2022/08/01 02:26:54;;;;;;;14.32;7.75;;;;;;;19.51;100.00;101664.22;5207447;28;20033;-72
2022/08/01 02:29:32;;;;;;;12.35;6.75;;;;;;;19.49;100.00;101669.03;5207668;28;20352;-73
2022/08/01 02:32:04;;;;;;;12.43;7.38;;;;;;;19.46;100.00;101664.00;5207081;28;20113;-73
2022/08/01 02:34:35;;;;;;;18.60;9.00;;;;;;;19.54;100.00;101669.25;5206234;28;20487;-73
2022/08/01 02:37:06;;;;;;;20.65;8.95;;;;;;;19.51;100.00;101671.56;5206933;28;20078;-73
2022/08/01 02:39:38;;;;;;;16.50;8.77;;;;;;;19.45;100.00;101665.03;5206603;28;20037;-74
2022/08/01 02:42:13;;;;;;;21.35;9.02;;;;;;;19.48;100.00;101674.66;5206919;28;20033;-72
2022/08/01 02:44:47;;;;;;;16.55;7.85;;;;;;;19.45;100.00;101670.50;5206204;28;20021;-71
2022/08/01 02:47:20;;;;;;;19.90;9.95;;;;;;;19.49;100.00;101676.38;5206107;28;20100;-73
2022/08/01 02:49:52;;;;;;;24.35;12.18;;;;;;;19.53;100.00;101664.00;5206807;28;20022;-72
2022/08/01 02:52:25;;;;;;;32.00;14.90;;;;;;;19.53;100.00;101664.88;5196056;28;20487;-72
2022/08/01 02:54:56;;;;;;;45.08;18.13;;;;;;;19.61;100.00;101663.84;5204420;28;20025;-73
2022/08/01 02:57:29;;;;;;;36.10;19.02;;;;;;;19.53;100.00;101670.31;5203816;28;20517;-73
2022/08/01 03:00:01;;;;;;;44.85;21.88;;;;;;;19.50;100.00;101676.16;5206399;28;20109;-73
2022/08/01 03:02:33;;;;;;;48.25;22.40;;;;;;;19.46;100.00;101680.31;5204933;28;20073;-74
2022/08/01 03:05:05;;;;;;;53.83;24.95;;;;;;;19.42;100.00;101677.16;5205554;28;20049;-73
2022/08/01 03:07:36;;;;;;;57.10;25.17;;;;;;;19.39;100.00;101680.31;5206555;28;20021;-73
2022/08/01 03:10:08;;;;;;;51.08;25.60;;;;;;;19.37;100.00;101679.66;5206215;28;20044;-73
2022/08/01 03:12:40;;;;;;;55.08;25.10;;;;;;;19.32;100.00;101674.00;5205111;28;20041;-74
2022/08/01 03:15:13;;;;;;;59.83;27.17;;;;;;;19.25;100.00;101681.31;5205449;28;20025;-73
2022/08/01 03:17:46;;;;;;;52.25;24.77;;;;;;;19.24;100.00;101674.19;5205359;28;20053;-74
2022/08/01 03:20:20;;;;;;;56.35;26.10;;;;;;;19.17;100.00;101686.91;5205132;28;20065;-73
2022/08/01 03:22:53;;;;;;;54.50;24.95;;;;;;;19.14;100.00;101681.88;5194487;28;20079;-73
2022/08/01 03:25:25;;;;;;;52.58;25.90;;;;;;;19.09;100.00;101684.38;5205495;28;20491;-74
2022/08/01 03:27:59;;;;;;;54.17;26.65;;;;;;;18.98;100.00;101687.69;5205700;28;20030;-74
2022/08/01 03:30:32;;;;;;;70.68;28.48;;;;;;;18.93;100.00;101687.44;5205146;28;20436;-74
2022/08/01 03:33:03;;;;;;;65.13;26.85;;;;;;;18.86;100.00;101685.50;5205965;28;20025;-72
2022/08/01 03:35:36;;;;;;;58.53;26.70;;;;;;;18.85;100.00;101689.28;5205479;28;20446;-72
2022/08/01 03:38:10;;;;;;;61.42;28.00;;;;;;;18.81;100.00;101693.41;5205344;28;20029;-74
2022/08/01 03:40:45;;;;;;;62.65;27.42;;;;;;;18.79;100.00;101686.53;5205653;28;20021;-73
2022/08/01 03:43:18;;;;;;;;;;;;;;;18.75;100.00;101686.06;5206146;28;20060;-73
2022/08/01 03:45:51;;;;;;;62.58;27.92;;;;;;;18.75;100.00;101696.94;5205233;28;19987;-76
2022/08/01 03:48:28;;;;;;;64.07;28.45;;;;;;;18.77;100.00;101694.84;5204545;28;20088;-73
2022/08/01 03:50:59;;;;;;;58.92;27.42;;;;;;;18.73;100.00;101698.19;5205927;28;20040;-74
2022/08/01 03:53:33;;;;;;;67.15;28.05;;;;;;;18.70;100.00;101693.16;5205355;28;20555;-74
2022/08/01 03:56:08;;;;;;;63.22;27.40;;;;;;;18.69;100.00;101703.19;5201688;28;20032;-74
2022/08/01 03:58:39;;;;;;;;;;;;;;;18.69;100.00;101697.75;5205953;28;20032;-75
2022/08/01 04:01:10;;;;;;;52.45;23.95;;;;;;;18.71;100.00;101700.25;5205106;28;20290;-73
2022/08/01 04:03:42;;;;;;;54.65;25.23;;;;;;;18.72;100.00;101691.06;5203640;28;20056;-73
2022/08/01 04:06:13;;;;;;;64.60;26.05;;;;;;;18.72;100.00;101694.63;5205038;28;20124;-74
2022/08/01 04:08:55;;;;;;;58.00;24.60;;;;;;;18.70;100.00;101693.97;5205159;28;20021;-74
2022/08/01 04:11:27;;;;;;;53.67;24.15;;;;;;;18.70;100.00;101691.28;5205078;28;20033;-74
2022/08/01 04:13:58;;;;;;;54.97;23.60;;;;;;;18.71;100.00;101690.22;5204993;28;20030;-74
2022/08/01 04:16:28;;;;;;;50.92;23.33;;;;;;;18.70;100.00;101696.69;5204558;28;20024;-73
2022/08/01 04:18:59;;;;;;;51.35;23.08;;;;;;;18.72;100.00;101697.34;5204973;28;20022;-72
2022/08/01 04:21:32;;;;;;;43.85;20.65;;;;;;;18.74;100.00;101700.72;5194469;28;20034;-73
2022/08/01 04:24:15;;;;;;;48.38;22.27;;;;;;;18.77;100.00;101702.19;5202345;28;20078;-73
2022/08/01 04:26:47;;;;;;;47.05;20.17;;;;;;;18.75;100.00;101702.38;5204890;28;20044;-74
2022/08/01 04:29:20;;;;;;;39.63;18.10;;;;;;;18.75;100.00;101713.25;5205101;28;20020;-74
2022/08/01 04:31:54;;;;;;;43.30;19.10;;;;;;;18.75;100.00;101715.13;5204919;28;20075;-73
2022/08/01 04:34:28;;;;;;;42.20;19.38;;;;;;;18.74;100.00;101711.59;5203629;28;20387;-73
2022/08/01 04:37:01;;;;;;;44.08;19.73;;;;;;;18.76;100.00;101716.81;5204329;28;20041;-73
2022/08/01 04:39:34;;;;;;;41.30;19.85;;;;;;;18.75;100.00;101721.41;5204431;28;20029;-72
2022/08/01 04:42:05;;;;;;;45.50;20.05;;;;;;;18.75;100.00;101720.56;5207365;28;20028;-72
2022/08/01 04:44:36;;;;;;;40.90;18.35;;;;;;;18.75;100.00;101710.53;5204046;28;20123;-74
2022/08/01 04:47:08;;;;;;;38.42;19.73;;;;;;;18.77;100.00;101716.59;5203295;28;20040;-72
2022/08/01 04:49:40;;;;;;;45.40;18.98;;;;;;;18.81;100.00;101720.59;5204361;28;20542;-72
2022/08/01 04:52:11;;;;;;;40.92;19.50;;;;;;;18.83;100.00;101729.41;5195608;28;20172;-72
2022/08/01 04:54:42;;;;;;;46.95;19.38;;;;;;;18.86;100.00;101728.16;5199977;28;20108;-74
2022/08/01 04:57:12;;;;;;;42.00;18.70;;;;;;;18.87;100.00;101725.25;5201006;28;20032;-73
2022/08/01 04:59:44;;;;;;;43.75;18.90;;;;;;;18.88;100.00;101729.66;5203944;28;20064;-73
2022/08/01 05:02:17;;;;;;;31.30;15.25;;;;;;;18.93;100.00;101728.22;5203981;28;20056;-72
2022/08/01 05:04:48;;;;;;;40.05;16.73;;;;;;;18.92;100.00;101730.06;5202633;28;20029;-74
2022/08/01 05:07:19;;;;;;;32.53;15.40;;;;;;;18.92;100.00;101735.50;5204246;28;20079;-73
2022/08/01 05:09:50;;;;;;;35.30;14.15;;;;;;;18.96;100.00;101728.66;5203627;28;20018;-72
2022/08/01 05:12:20;;;;;;;35.38;14.75;;;;;;;18.99;100.00;101730.13;5203974;28;20029;-70
2022/08/01 05:14:51;;;;;;;35.05;15.50;;;;;;;19.02;100.00;101737.88;5203281;28;20032;-70
2022/08/01 05:17:21;;;;;;;39.28;15.18;;;;;;;19.04;100.00;101730.38;5203977;28;20025;-70
2022/08/01 05:19:52;;;;;;;28.27;13.07;;;;;;;19.09;100.00;101736.06;5204267;28;20105;-70
2022/08/01 05:22:24;;;;;;;30.33;12.30;;;;;;;19.13;100.00;101732.72;5203198;28;20414;-70
2022/08/01 05:24:55;;;;;;;24.48;11.70;;;;;;;19.20;100.00;101732.75;5203225;28;20080;-70
2022/08/01 05:27:26;;;;;;;21.77;11.23;;;;;;;19.25;100.00;101738.44;5203840;28;20029;-70
2022/08/01 05:29:56;;;;;;;26.10;11.55;;;;;;;19.26;100.00;101740.09;5204057;28;20052;-70
2022/08/01 05:32:29;;;;;;;21.95;10.68;;;;;;;19.24;100.00;101742.19;5203609;28;20068;-71
2022/08/01 05:34:59;;;;;;;29.85;11.50;;;;;;;19.24;100.00;101747.63;5202703;28;20029;-70
2022/08/01 05:37:30;;;;;;;26.25;10.00;;;;;;;19.21;100.00;101742.59;5203286;28;20084;-70
2022/08/01 05:40:01;;;;;;;31.77;11.85;;;;;;;19.23;100.00;101739.66;5202875;28;20575;-70
2022/08/01 05:42:31;;;;;;;28.77;12.02;;;;;;;19.29;100.00;101739.72;5204071;28;20030;-70
2022/08/01 05:45:02;;;;;;;17.52;8.93;;;;;;;19.40;100.00;101735.56;5202930;28;20021;-70
2022/08/01 05:47:32;;;;;;;18.60;9.35;;;;;;;19.37;100.00;101739.53;5202764;28;20033;-70
2022/08/01 05:50:03;;;;;;;19.83;8.52;;;;;;;19.36;100.00;101739.72;5203240;28;20025;-70
2022/08/01 05:52:34;;;;;;;20.70;8.18;;;;;;;19.35;100.00;101749.78;5203499;28;20361;-70
2022/08/01 05:55:05;;;;;;;17.20;7.57;;;;;;;19.40;100.00;101741.84;5202766;28;20048;-70
2022/08/01 05:57:36;;;;;;;19.13;7.93;;;;;;;19.41;100.00;101735.34;5200276;28;20033;-70
2022/08/01 06:00:07;;;;;;;16.90;7.40;;;;;;;19.50;100.00;101744.19;5203147;28;20029;-70
2022/08/01 06:02:41;;;;;;;13.65;7.10;;;;;;;19.56;100.00;101747.97;5197196;28;20327;-70
2022/08/01 06:05:12;;;;;;;23.57;7.60;;;;;;;19.65;100.00;101747.63;5183139;28;20026;-70
2022/08/01 06:07:42;;;;;;;11.40;6.85;;;;;;;19.71;100.00;101745.13;5197352;28;20028;-70
2022/08/01 06:10:13;;;;;;;11.55;6.20;;;;;;;19.78;100.00;101748.69;5201419;28;20028;-70
2022/08/01 06:12:43;;;;;;;11.05;6.10;;;;;;;19.87;100.00;101748.31;5201941;28;20025;-70
2022/08/01 06:15:14;;;;;;;15.80;6.55;;;;;;;19.86;100.00;101748.53;5200961;28;20085;-70
2022/08/01 06:17:44;;;;;;;16.83;6.15;;;;;;;19.88;100.00;101746.41;5201126;28;20025;-70
2022/08/01 06:20:15;;;;;;;11.27;6.30;;;;;;;19.96;100.00;101746.25;5201243;28;20592;-70
2022/08/01 06:22:45;;;;;;;14.13;6.05;;;;;;;20.00;100.00;101752.94;5189009;28;20037;-70
2022/08/01 06:25:16;;;;;;;13.35;6.38;;;;;;;20.11;100.00;101746.88;5200938;28;20026;-70
2022/08/01 06:27:46;;;;;;;22.77;6.88;;;;;;;20.26;100.00;101749.41;5201406;28;20222;-70
2022/08/01 06:30:17;;;;;;;13.02;6.47;;;;;;;20.31;100.00;101746.91;5201239;28;20063;-70
2022/08/01 06:32:47;;;;;;;11.93;4.90;;;;;;;20.48;100.00;101754.69;5202046;28;20037;-70
2022/08/01 06:35:18;;;;;;;7.88;5.68;;;;;;;20.49;100.00;101750.94;5200069;28;20104;-70
2022/08/01 06:37:48;;;;;;;12.68;5.00;;;;;;;20.50;100.00;101753.44;5201095;28;20032;-70
2022/08/01 06:40:19;;;;;;;14.57;5.43;;;;;;;20.51;100.00;101746.94;5200907;28;20025;-70
2022/08/01 06:42:50;;;;;;;13.85;5.00;;;;;;;20.70;100.00;101753.44;5200552;28;20033;-70
2022/08/01 06:48:07;;;;;;;5.38;3.22;;;;;;;21.03;100.00;101750.63;5199674;28;20414;-70
2022/08/01 06:50:37;;;;;;;12.93;3.90;;;;;;;21.32;100.00;101748.50;5202801;28;20035;-70
2022/08/01 06:53:08;;;;;;;7.35;3.65;;;;;;;21.68;100.00;101750.63;5191108;28;20064;-70
2022/08/01 06:55:38;;;;;;;5.68;3.03;;;;;;;22.74;100.00;101760.81;5203511;28;20025;-70
2022/08/01 06:58:09;;;;;;;9.30;3.28;;;;;;;23.33;100.00;101747.59;5202031;28;20403;-70
2022/08/01 07:00:39;;;;;;;7.90;2.83;;;;;;;23.89;100.00;101750.03;5205147;28;20475;-70
2022/08/01 07:03:10;;;;;;;5.45;2.70;;;;;;;24.66;100.00;101757.50;5203134;28;20120;-70
2022/08/01 07:05:40;;;;;;;2.80;1.80;;;;;;;24.54;100.00;101763.81;5204228;28;20017;-70
2022/08/01 07:08:11;;;;;;;3.28;1.63;;;;;;;23.57;100.00;101773.22;5204246;28;20209;-70
2022/08/01 07:10:43;;;;;;;4.32;2.25;;;;;;;22.81;100.00;101769.81;5204636;28;20479;-70
2022/08/01 07:13:14;;;;;;;4.05;1.40;;;;;;;22.31;100.00;101769.81;5205240;28;20051;-70
2022/08/01 07:15:45;;;;;;;5.57;1.40;;;;;;;21.96;100.00;101769.41;5203132;28;20047;-70
2022/08/01 07:18:15;;;;;;;3.95;1.70;;;;;;;21.90;100.00;101771.13;5203466;28;20472;-70
2022/08/01 07:20:46;;;;;;;5.22;1.45;;;;;;;21.87;100.00;101774.28;5203875;28;20025;-70
2022/08/01 07:23:17;;;;;;;1.83;1.40;;;;;;;21.72;100.00;101769.09;5204438;28;20021;-70
2022/08/01 07:25:48;;;;;;;3.03;1.30;;;;;;;21.82;100.00;101765.91;5202849;28;20037;-70
2022/08/01 07:28:19;;;;;;;2.38;1.45;;;;;;;21.87;100.00;101774.28;5203595;28;20025;-70
2022/08/01 07:30:49;;;;;;;2.35;1.02;;;;;;;21.81;100.00;101766.13;5204245;28;20450;-70
2022/08/01 07:33:20;;;;;;;3.50;2.10;;;;;;;21.79;100.00;101763.63;5203393;28;20116;-70
2022/08/01 07:35:51;;;;;;;1.85;1.30;;;;;;;21.82;100.00;101768.63;5202774;28;20064;-70
2022/08/01 07:38:21;;;;;;;1.83;1.67;;;;;;;22.11;100.00;101772.69;5203482;28;20111;-70
2022/08/01 07:40:52;;;;;;;2.63;1.50;;;;;;;22.35;100.00;101772.97;5204378;28;20536;-70
2022/08/01 07:43:22;;;;;;;2.78;1.75;;;;;;;22.61;100.00;101777.38;5204166;28;20388;-71
2022/08/01 07:45:53;;;;;;;4.30;1.30;;;;;;;22.78;100.00;101777.63;5204164;28;20033;-70
2022/08/01 07:48:24;;;;;;;2.40;1.25;;;;;;;22.91;100.00;101780.28;5201845;28;20474;-70
2022/08/01 07:50:55;;;;;;;3.13;1.63;;;;;;;22.81;100.00;101782.66;5204256;28;20380;-70
2022/08/01 07:53:26;;;;;;;5.47;3.40;;;;;;;22.64;100.00;101787.84;5203993;28;20076;-70
2022/08/01 07:55:56;;;;;;;6.68;3.00;;;;;;;22.69;100.00;101780.66;5200180;28;20468;-70
2022/08/01 07:58:27;;;;;;;3.58;2.97;;;;;;;22.99;100.00;101791.78;5202961;28;20060;-70
2022/08/01 08:00:57;;;;;;;4.00;3.17;;;;;;;22.97;100.00;101785.69;5203369;28;20116;-70
2022/08/01 08:03:28;;;;;;;4.28;2.80;;;;;;;22.85;100.00;101795.66;5200947;28;20037;-70
2022/08/01 08:05:58;;;;;;;4.97;2.30;;;;;;;22.86;100.00;101794.59;5202709;28;20028;-70
2022/08/01 08:08:29;;;;;;;4.47;2.47;;;;;;;22.81;100.00;101796.34;5203071;28;20422;-70
2022/08/01 08:11:01;;;;;;;5.10;3.00;;;;;;;23.06;100.00;101799.09;5203323;28;20033;-70
2022/08/01 08:13:31;;;;;;;3.95;2.70;;;;;;;24.00;100.00;101786.81;5203402;28;20032;-70
2022/08/01 08:16:02;;;;;;;2.70;2.50;;;;;;;25.45;100.00;101786.22;5202739;28;20029;-70
2022/08/01 08:18:32;;;;;;;3.88;2.10;;;;;;;26.81;100.00;101789.03;5202503;28;20487;-71
2022/08/01 08:21:03;;;;;;;4.40;2.50;;;;;;;27.11;100.00;101796.09;5203050;28;20395;-71
2022/08/01 08:26:23;;;;;;;2.92;2.05;;;;;;;26.49;100.00;101799.78;5202681;28;20025;-71
2022/08/01 08:28:54;;;;;;;2.25;2.05;;;;;;;26.24;100.00;101800.13;5201441;28;20395;-71
2022/08/01 08:31:24;;;;;;;3.55;2.17;;;;;;;25.75;100.00;101799.75;5203505;28;20022;-71
2022/08/01 08:33:55;;;;;;;3.70;1.50;;;;;;;25.48;100.00;101801.38;5202518;28;20032;-71
2022/08/01 08:36:25;;;;;;;1.15;1.00;;;;;;;25.05;100.00;101792.47;5202515;28;20487;-71
2022/08/01 08:38:56;;;;;;;3.92;1.77;;;;;;;24.54;100.00;101788.50;5202173;28;20163;-71
2022/08/01 08:41:26;;;;;;;3.10;1.10;;;;;;;24.12;100.00;101792.31;5203220;28;20036;-70
2022/08/01 08:43:58;;;;;;;2.15;0.82;;;;;;;24.02;100.00;101799.19;5203387;28;20188;-71
2022/08/01 08:46:32;;;;;;;1.35;0.90;;;;;;;23.73;100.00;101798.09;5201295;28;20036;-70
2022/08/01 08:49:03;;;;;;;1.65;0.80;;;;;;;23.65;100.00;101800.34;5202161;28;20523;-71
2022/08/01 08:51:37;;;;;;;1.63;0.90;;;;;;;23.71;100.00;101800.25;5202733;28;20355;-71
2022/08/01 08:54:12;;;;;;;1.45;1.35;;;;;;;24.40;100.00;101811.75;5202531;28;20061;-70
2022/08/01 08:56:44;;;;;;;1.33;1.23;;;;;;;24.97;100.00;101812.03;5199057;28;20029;-71
2022/08/01 08:59:14;;;;;;;2.35;1.20;;;;;;;25.54;100.00;101806.72;5201577;28;20025;-71
2022/08/01 09:01:45;;;;;;;1.15;1.05;;;;;;;25.28;100.00;101818.25;5202587;28;20031;-70
2022/08/01 09:04:16;;;;;;;0.75;0.73;;;;;;;25.46;100.00;101817.28;5199657;28;20095;-71
2022/08/01 09:06:47;;;;;;;0.98;0.85;;;;;;;25.22;100.00;101810.97;5202232;28;20029;-70
2022/08/01 09:09:17;;;;;;;2.05;1.13;;;;;;;25.08;100.00;101804.06;5201668;28;20026;-71
2022/08/01 09:11:48;;;;;;;1.20;1.10;;;;;;;24.73;100.00;101818.56;5202461;28;20028;-71
2022/08/01 09:17:08;;;;;;;2.70;1.23;;;;;;;25.61;100.00;101809.34;5201642;28;20033;-71
2022/08/01 09:19:43;;;;;;;2.17;0.80;;;;;;;26.05;100.00;101815.19;5201857;28;20017;-71
2022/08/01 09:22:18;;;;;;;3.45;0.80;;;;;;;26.43;100.00;101806.28;5201763;28;20033;-71
2022/08/01 09:25:04;;;;;;;1.15;0.98;;;;;;;26.29;100.00;101804.91;5202178;28;20403;-71
2022/08/01 09:27:38;;;;;;;1.67;0.80;;;;;;;25.86;100.00;101816.47;5201724;28;20471;-71
2022/08/01 09:30:12;;;;;;;0.95;0.60;;;;;;;26.37;100.00;101811.91;5201620;28;20022;-71
2022/08/01 09:33:10;;;;;;;6.03;1.20;;;;;;;26.69;100.00;101817.72;5201873;28;20025;-71
2022/08/01 09:35:44;;;;;;;3.08;0.75;;;;;;;27.45;100.00;101818.03;5201352;28;20314;-71
2022/08/01 09:38:31;;;;;;;1.43;0.87;;;;;;;27.75;93.67;101823.94;5201510;28;20057;-72
2022/08/01 09:41:02;;;;;;;1.95;0.90;;;;;;;27.04;96.01;101822.94;5203370;28;20034;-71
2022/08/01 09:43:33;;;;;;;1.50;0.80;;;;;;;26.54;100.00;101826.53;5215057;28;20024;-71
2022/08/01 09:46:08;;;;;;;3.22;1.10;;;;;;;26.32;100.00;101820.91;5221351;28;20081;-72
2022/08/01 09:48:40;;;;;;;1.73;0.65;;;;;;;26.73;100.00;101818.88;5210732;28;20022;-71
2022/08/01 09:51:11;;;;;;;1.95;1.23;;;;;;;27.23;100.00;101824.34;5203062;28;20061;-71
2022/08/01 09:53:45;;;;;;;1.88;0.80;;;;;;;27.89;100.00;101824.38;5202032;28;20026;-71
2022/08/01 09:56:16;;;;;;;2.20;1.30;;;;;;;28.33;95.12;101824.28;5198104;28;20399;-71
2022/08/01 09:59:05;;;;;;;2.55;0.90;;;;;;;28.60;88.65;101827.03;5200858;28;20130;-72
2022/08/01 10:01:53;;;;;;;3.08;0.70;;;;;;;27.83;88.67;101830.94;5200884;28;20047;-71
2022/08/01 10:04:24;;;;;;;2.15;0.85;;;;;;;27.39;91.27;101822.63;5198971;28;20040;-71
2022/08/01 10:07:05;;;;;;;2.22;1.00;;;;;;;27.63;98.21;101820.47;5201816;28;20271;-71
2022/08/01 10:09:36;;;;;;;4.15;1.25;;;;;;;28.13;93.80;101827.69;5200303;28;20099;-71
2022/08/01 10:12:09;;;;;;;3.28;1.20;;;;;;;28.51;96.52;101812.88;5201564;28;20022;-71
2022/08/01 10:14:40;;;;;;;2.50;1.35;;;;;;;29.09;87.95;101833.25;5201344;28;20383;-71
2022/08/01 10:17:14;;;;;;;2.88;1.50;;;;;;;29.10;84.06;101825.78;5199976;28;20129;-71
2022/08/01 10:19:49;;;;;;;6.80;1.38;;;;;;;29.44;79.86;101823.47;5200961;28;20067;-71
2022/08/01 10:22:23;;;;;;;1.73;1.10;;;;;;;29.44;76.50;101829.00;5200333;28;20025;-71
2022/08/01 10:24:56;;;;;;;2.43;1.40;;;;;;;29.18;77.20;101824.47;5201156;28;20530;-71
2022/08/01 10:27:32;;;;;;;2.42;1.48;;;;;;;28.96;78.00;101825.41;5205003;28;20276;-71
2022/08/01 10:30:05;;;;;;;4.45;1.60;;;;;;;29.19;76.55;101831.63;5204912;28;20115;-71
2022/08/01 10:32:35;;;;;;;4.15;1.88;;;;;;;28.42;80.03;101819.19;5204926;28;20077;-71
2022/08/01 10:35:07;;;;;;;5.07;1.60;;;;;;;27.53;89.56;101826.69;5204310;28;20495;-71
2022/08/01 10:37:37;;;;;;;4.68;1.95;;;;;;;27.35;89.81;101821.47;5206325;28;20239;-71
2022/08/01 10:40:10;;;;;;;2.63;1.52;;;;;;;26.83;96.28;101810.78;5206956;28;20039;-71
2022/08/01 10:42:44;;;;;;;4.45;1.80;;;;;;;26.62;100.00;101812.38;5206898;28;20022;-71
2022/08/01 10:45:15;;;;;;;3.15;1.38;;;;;;;26.65;97.85;101820.13;5205784;28;20025;-71
2022/08/01 10:48:05;;;;;;;3.90;1.70;;;;;;;26.78;95.58;101810.72;5206034;28;20026;-71
2022/08/01 10:50:58;;;;;;;5.55;2.17;;;;;;;26.54;94.03;101808.13;5196123;28;20025;-71
2022/08/01 10:53:28;;;;;;;7.22;2.50;;;;;;;26.42;91.49;101807.38;5206114;28;20104;-71
2022/08/01 10:56:02;;;;;;;4.88;2.10;;;;;;;26.58;90.74;101806.53;5203693;28;20179;-71
2022/08/01 10:58:37;;;;;;;5.22;2.20;;;;;;;27.00;90.64;101805.25;5206317;28;20384;-71
2022/08/01 11:01:28;;;;;;;4.13;3.42;;;;;;;27.22;85.32;101802.59;5206544;28;20116;-71
2022/08/01 11:04:00;;;;;;;5.80;3.28;;;;;;;26.96;87.31;101809.59;5204156;28;20022;-71
2022/08/01 11:06:52;;;;;;;8.43;4.00;;;;;;;26.79;88.10;101804.09;5205640;28;20032;-71
2022/08/01 11:09:27;;;;;;;7.55;3.70;;;;;;;26.79;89.38;101812.38;5206088;28;20079;-71
2022/08/01 11:11:58;;;;;;;5.90;3.38;;;;;;;27.08;86.11;101813.94;5206473;28;20029;-71
2022/08/01 11:14:29;;;;;;;7.20;4.55;;;;;;;27.10;89.56;101806.25;5205596;28;20099;-71
2022/08/01 11:17:33;;;;;;;8.25;3.45;;;;;;;27.73;88.02;101811.53;5206081;28;20471;-71
2022/08/01 11:20:37;;;;;;;9.30;3.20;;;;;;;27.96;81.92;101819.50;5206402;28;20040;-71
2022/08/01 11:23:09;;;;;;;5.60;3.17;;;;;;;27.93;80.55;101811.75;5196765;28;20116;-71
2022/08/01 11:25:41;;;;;;;3.20;2.90;;;;;;;27.90;80.49;101811.44;5205381;28;20029;-71
2022/08/01 11:28:31;;;;;;;4.65;3.13;;;;;;;27.89;78.87;101813.34;5205876;28;20030;-71
2022/08/01 11:31:01;;;;;;;6.65;3.10;;;;;;;27.74;77.87;101802.16;5205482;28;20033;-72
2022/08/01 11:33:41;;;;;;;7.68;2.97;;;;;;;27.48;80.59;101803.75;5205542;28;20021;-71
2022/08/01 11:36:13;;;;;;;4.30;2.70;;;;;;;27.39;82.42;101814.38;5205217;28;20041;-71
2022/08/01 11:38:47;;;;;;;4.03;2.60;;;;;;;27.30;78.72;101808.47;5204716;28;20541;-71
2022/08/01 11:41:36;;;;;;;3.87;1.97;;;;;;;27.39;72.56;101808.03;5205892;28;20025;-71
2022/08/01 11:44:08;;;;;;;3.72;2.22;;;;;;;27.29;76.04;101804.03;5194849;28;20816;-71
2022/08/01 11:47:09;;;;;;;5.13;2.40;;;;;;;27.26;78.21;101803.72;5204551;28;20029;-71
2022/08/01 11:49:59;;;;;;;4.78;2.40;;;;;;;27.49;80.25;101800.72;5205336;28;20082;-71